This is the latest recevied weather packets stored in our database for station/object DB0MW-13. If no packets are shown the sender has not sent any weather packets the latest 10 day(s).
| Time | Temp. | Humidity | Pressure | Rain* | Wind** | Luminosity | Snow |
|---|---|---|---|---|---|---|---|
| 1777625701 | 16.67° C | 33% | 1028.8 hPa | 0 mm | - | - | - |
| 1777625401 | 16.67° C | 33% | 1028.7 hPa | 0 mm | - | - | - |
| 1777625101 | 16.11° C | 34% | 1029 hPa | 0 mm | - | - | - |
| 1777624800 | 16.11° C | 34% | 1029 hPa | 0 mm | - | - | - |
| 1777624501 | 16.11° C | 36% | 1028.9 hPa | 0 mm | - | - | - |
| 1777624200 | 15.56° C | 38% | 1028.8 hPa | 0 mm | - | - | - |
| 1777623901 | 15.56° C | 36% | 1028.9 hPa | 0 mm | - | - | - |
| 1777623600 | 15° C | 37% | 1029 hPa | 0 mm | - | - | - |
| 1777623301 | 15° C | 38% | 1028.9 hPa | 0 mm | - | - | - |
| 1777623000 | 14.44° C | 38% | 1029.1 hPa | 0 mm | - | - | - |
| 1777622700 | 14.44° C | 38% | 1028.9 hPa | 0 mm | - | - | - |
| 1777622401 | 14.44° C | 39% | 1029 hPa | 0 mm | - | - | - |
| 1777622100 | 13.89° C | 39% | 1029.1 hPa | 0 mm | - | - | - |
| 1777621800 | 13.33° C | 40% | 1029.1 hPa | 0 mm | - | - | - |
| 1777621500 | 13.33° C | 41% | 1028.9 hPa | 0 mm | - | - | - |
| 1777621200 | 12.78° C | 41% | 1029.1 hPa | 0 mm | - | - | - |
| 1777620900 | 12.78° C | 42% | 1029.1 hPa | 0 mm | - | - | - |
| 1777620600 | 12.78° C | 42% | 1029.1 hPa | 0 mm | - | - | - |
| 1777620300 | 12.22° C | 44% | 1029.3 hPa | 0 mm | - | - | - |
| 1777620000 | 12.22° C | 45% | 1029.2 hPa | 0 mm | - | - | - |
| 1777619700 | 11.67° C | 46% | 1029.3 hPa | 0 mm | - | - | - |
| 1777619400 | 11.67° C | 47% | 1029.1 hPa | 0 mm | - | - | - |
| 1777619101 | 11.67° C | 48% | 1029.1 hPa | 0 mm | - | - | - |
| 1777618801 | 11.11° C | 49% | 1029.3 hPa | 0 mm | - | - | - |
| 1777618501 | 11.11° C | 49% | 1029.2 hPa | 0 mm | - | - | - |
* Rain latest hour (hover to see other rain measurements)
** Current wind speed in m/s (hover to see current wind gust speed)